createdAt,value
2017-11-08T00:00:19.716Z,8.90
2017-11-08T00:02:48.075Z,9.00
2017-11-08T00:05:15.692Z,8.90
2017-11-08T00:07:43.258Z,8.90
2017-11-08T00:10:10.828Z,8.80
2017-11-08T00:12:38.436Z,8.80
2017-11-08T00:15:06.050Z,8.80
2017-11-08T00:17:33.611Z,8.90
2017-11-08T00:20:01.977Z,9.00
2017-11-08T00:22:29.578Z,9.00
2017-11-08T00:24:59.098Z,9.00
2017-11-08T00:27:26.678Z,9.10
2017-11-08T00:29:54.266Z,9.10
2017-11-08T00:32:21.845Z,9.10
2017-11-08T00:34:50.214Z,9.20
2017-11-08T00:37:17.764Z,9.20
2017-11-08T00:39:45.315Z,9.10
2017-11-08T00:42:12.901Z,9.20
2017-11-08T00:44:41.242Z,9.00
2017-11-08T00:47:08.852Z,9.00
2017-11-08T00:49:37.180Z,9.00
2017-11-08T00:52:04.745Z,9.00
2017-11-08T00:54:32.343Z,9.00
2017-11-08T00:57:00.681Z,9.10
2017-11-08T00:59:28.244Z,9.10
2017-11-08T01:01:55.821Z,9.00
2017-11-08T01:04:23.430Z,9.10
2017-11-08T01:06:50.993Z,9.00
2017-11-08T01:09:18.563Z,9.10
2017-11-08T01:11:46.178Z,9.00
2017-11-08T01:14:13.738Z,9.00
2017-11-08T01:16:41.290Z,8.90
2017-11-08T01:19:08.896Z,8.90
2017-11-08T01:21:36.464Z,8.90
2017-11-08T01:24:04.056Z,8.80
2017-11-08T01:26:31.610Z,8.90
2017-11-08T01:28:59.214Z,8.90
2017-11-08T01:31:27.556Z,8.90
2017-11-08T01:33:55.121Z,8.90
2017-11-08T01:36:22.746Z,8.90
2017-11-08T01:38:50.318Z,8.90
2017-11-08T01:41:23.566Z,8.90
2017-11-08T01:43:54.364Z,9.00
2017-11-08T01:46:21.926Z,8.90
2017-11-08T01:48:49.523Z,8.90
2017-11-08T01:51:17.846Z,9.00
2017-11-08T01:53:45.450Z,10.20
2017-11-08T01:56:13.029Z,9.00
2017-11-08T01:58:41.390Z,9.00
2017-11-08T02:01:08.982Z,8.90
2017-11-08T02:03:36.544Z,8.90
2017-11-08T02:06:04.145Z,8.90
2017-11-08T02:08:31.727Z,9.00
2017-11-08T02:10:59.319Z,8.90
2017-11-08T02:13:27.650Z,8.90
2017-11-08T02:15:57.018Z,8.80
2017-11-08T02:18:24.579Z,8.80
2017-11-08T02:20:52.178Z,8.80
2017-11-08T02:23:19.742Z,8.70
2017-11-08T02:25:47.350Z,8.70
2017-11-08T02:28:17.857Z,8.70
2017-11-08T02:30:46.241Z,8.80
2017-11-08T02:33:14.595Z,8.80
2017-11-08T02:35:42.154Z,8.80
2017-11-08T02:38:09.805Z,8.80
2017-11-08T02:40:37.361Z,8.80
2017-11-08T02:43:04.921Z,8.90
2017-11-08T02:45:35.381Z,8.90
2017-11-08T02:48:03.715Z,8.80
2017-11-08T02:50:31.271Z,8.80
2017-11-08T02:52:58.865Z,8.80
2017-11-08T02:55:26.471Z,8.80
2017-11-08T02:57:54.032Z,8.80
2017-11-08T03:00:21.624Z,8.80
2017-11-08T03:02:51.151Z,8.90
2017-11-08T03:05:18.764Z,8.80
2017-11-08T03:07:46.345Z,8.80
2017-11-08T03:10:13.911Z,8.70
2017-11-08T03:12:41.522Z,8.70
2017-11-08T03:15:09.855Z,8.70
2017-11-08T03:17:37.411Z,8.60
2017-11-08T03:20:05.008Z,8.70
2017-11-08T03:22:32.560Z,8.60
2017-11-08T03:25:00.179Z,8.60
2017-11-08T03:27:27.741Z,8.60
2017-11-08T03:29:55.310Z,8.60
2017-11-08T03:32:22.914Z,8.50
2017-11-08T03:34:50.513Z,8.50
2017-11-08T03:37:18.078Z,8.50
2017-11-08T03:39:45.638Z,8.50
2017-11-08T03:42:13.234Z,8.50
2017-11-08T03:44:40.790Z,8.40
2017-11-08T03:47:08.397Z,8.60
2017-11-08T03:49:36.719Z,8.50
2017-11-08T03:52:04.274Z,8.50
2017-11-08T03:54:31.854Z,8.50
2017-11-08T03:56:59.451Z,8.50
2017-11-08T03:59:27.768Z,8.30
2017-11-08T04:01:55.441Z,8.30
2017-11-08T04:04:23.032Z,8.30
2017-11-08T04:06:50.622Z,8.30
2017-11-08T04:09:18.237Z,8.40
2017-11-08T04:11:45.796Z,8.50
2017-11-08T04:14:13.367Z,8.50
2017-11-08T04:16:40.992Z,8.50
2017-11-08T04:19:08.567Z,8.40
2017-11-08T04:21:36.117Z,8.50
2017-11-08T04:24:03.720Z,8.60
2017-11-08T04:26:31.289Z,8.30
2017-11-08T04:28:58.889Z,8.30
2017-11-08T04:31:26.494Z,8.30
2017-11-08T04:33:54.062Z,8.30
2017-11-08T04:36:21.653Z,8.30
2017-11-08T04:38:49.983Z,8.20
2017-11-08T04:41:17.586Z,8.10
2017-11-08T04:43:45.940Z,8.20
2017-11-08T04:46:13.549Z,8.20
2017-11-08T04:48:41.139Z,8.30
2017-11-08T04:51:08.695Z,8.30
2017-11-08T04:53:36.296Z,8.20
2017-11-08T04:56:04.628Z,8.20
2017-11-08T04:58:32.222Z,8.10
2017-11-08T05:00:59.809Z,8.20
2017-11-08T05:03:28.163Z,8.30
2017-11-08T05:05:55.771Z,8.30
2017-11-08T05:08:23.330Z,8.40
2017-11-08T05:10:50.885Z,8.40
2017-11-08T05:13:18.532Z,8.40
2017-11-08T05:15:46.098Z,8.40
2017-11-08T05:18:14.444Z,8.30
2017-11-08T05:20:42.064Z,8.20
2017-11-08T05:23:09.624Z,8.20
2017-11-08T05:25:37.224Z,8.30
2017-11-08T05:28:04.793Z,8.30
2017-11-08T05:30:32.729Z,8.20
2017-11-08T05:33:00.315Z,8.20
2017-11-08T05:35:28.657Z,8.10
2017-11-08T05:37:56.254Z,8.10
2017-11-08T05:40:23.865Z,8.20
2017-11-08T05:42:51.430Z,8.10
2017-11-08T05:45:19.014Z,8.10
2017-11-08T05:47:46.622Z,8.10
2017-11-08T05:50:14.954Z,8.00
2017-11-08T05:52:42.516Z,8.00
2017-11-08T05:55:10.103Z,8.00
2017-11-08T05:57:37.733Z,8.10
2017-11-08T06:00:05.337Z,8.20
2017-11-08T06:02:33.667Z,8.20
2017-11-08T06:05:01.251Z,8.20
2017-11-08T06:07:28.830Z,8.20
2017-11-08T06:09:57.202Z,8.30
2017-11-08T06:12:24.769Z,8.30
2017-11-08T06:14:52.397Z,8.30
2017-11-08T06:17:20.000Z,8.20
2017-11-08T06:19:47.632Z,8.30
2017-11-08T06:22:15.190Z,8.30
2017-11-08T06:24:42.798Z,8.20
2017-11-08T06:27:10.370Z,8.30
2017-11-08T06:29:37.965Z,8.30
2017-11-08T06:32:05.580Z,8.30
2017-11-08T06:34:33.989Z,8.40
2017-11-08T06:37:01.559Z,8.40
2017-11-08T06:39:29.162Z,8.30
2017-11-08T06:41:56.810Z,8.30
2017-11-08T06:44:24.422Z,8.40
2017-11-08T06:46:51.973Z,8.30
2017-11-08T06:49:20.351Z,8.30
2017-11-08T06:51:48.682Z,8.20
2017-11-08T06:54:16.279Z,8.20
2017-11-08T06:56:45.214Z,8.30
2017-11-08T06:59:12.774Z,8.30
2017-11-08T07:01:40.366Z,8.30
2017-11-08T07:04:07.977Z,8.20
2017-11-08T07:06:37.383Z,8.20
2017-11-08T07:09:04.985Z,8.20
2017-11-08T07:11:32.577Z,8.20
2017-11-08T07:14:00.902Z,8.10
2017-11-08T07:16:28.511Z,8.10
2017-11-08T07:18:56.839Z,8.10
2017-11-08T07:21:24.403Z,8.10
2017-11-08T07:23:51.990Z,8.20
2017-11-08T07:26:19.549Z,8.10
2017-11-08T07:28:47.150Z,8.10
2017-11-08T07:31:14.707Z,8.00
2017-11-08T07:33:43.066Z,8.20
2017-11-08T07:36:11.388Z,8.20
2017-11-08T07:38:39.151Z,8.10
2017-11-08T07:41:06.711Z,8.10
2017-11-08T07:43:34.318Z,8.30
2017-11-08T07:46:01.934Z,8.50
2017-11-08T07:48:29.535Z,6.40
2017-11-08T07:50:57.199Z,8.40
2017-11-08T07:56:38.372Z,8.20
2017-11-08T07:59:17.693Z,8.20
2017-11-08T08:01:46.981Z,8.20
2017-11-08T08:04:14.709Z,8.20
2017-11-08T08:06:43.086Z,8.20
2017-11-08T08:09:18.252Z,8.20
2017-11-08T08:11:51.953Z,8.20
2017-11-08T08:14:21.220Z,8.20
2017-11-08T08:16:49.361Z,8.20
2017-11-08T08:23:20.905Z,8.30
2017-11-08T08:26:14.292Z,8.30
2017-11-08T08:35:04.212Z,8.50
2017-11-08T08:37:31.847Z,8.40
2017-11-08T08:40:00.229Z,8.40
2017-11-08T08:42:27.818Z,8.30
2017-11-08T08:44:55.667Z,8.50
2017-11-08T08:47:24.313Z,8.40
2017-11-08T08:49:52.697Z,8.40
2017-11-08T08:52:23.275Z,8.40
2017-11-08T08:54:54.417Z,8.50
2017-11-08T08:57:23.460Z,8.50
2017-11-08T08:59:51.149Z,8.50
2017-11-08T09:02:23.153Z,8.60
2017-11-08T09:04:50.785Z,8.40
2017-11-08T09:07:19.166Z,8.50
2017-11-08T09:09:46.779Z,8.50
2017-11-08T09:12:14.392Z,8.50
2017-11-08T09:14:42.774Z,8.60
2017-11-08T09:20:00.600Z,8.50
2017-11-08T09:22:28.170Z,8.50
2017-11-08T09:24:55.911Z,8.50
2017-11-08T09:27:23.494Z,8.40
2017-11-08T09:29:55.932Z,8.40
2017-11-08T09:32:24.313Z,8.40
2017-11-08T09:34:52.382Z,8.40
2017-11-08T09:37:25.694Z,8.40
2017-11-08T09:39:53.289Z,8.40
2017-11-08T09:42:21.655Z,8.40
2017-11-08T09:44:49.277Z,8.40
2017-11-08T09:47:18.674Z,8.40
2017-11-08T09:49:46.254Z,8.40
2017-11-08T09:52:13.855Z,8.50
2017-11-08T09:54:42.256Z,8.40
2017-11-08T09:57:10.619Z,8.40
2017-11-08T09:59:38.326Z,8.40
2017-11-08T10:02:05.895Z,8.50
2017-11-08T10:04:33.469Z,8.50
2017-11-08T10:07:01.092Z,8.40
2017-11-08T10:09:29.583Z,8.30
2017-11-08T10:12:02.148Z,8.30
2017-11-08T10:14:29.839Z,8.30
2017-11-08T10:16:57.879Z,8.30
2017-11-08T10:19:33.931Z,8.40
2017-11-08T10:22:16.983Z,8.40
2017-11-08T10:24:46.408Z,8.40
2017-11-08T10:27:13.982Z,8.40
2017-11-08T10:29:41.571Z,8.40
2017-11-08T10:32:09.180Z,8.40
2017-11-08T10:34:36.791Z,8.50
2017-11-08T10:37:04.367Z,8.40
2017-11-08T10:39:32.689Z,8.40
2017-11-08T10:44:28.298Z,8.40
2017-11-08T10:46:56.269Z,8.40
2017-11-08T10:49:31.377Z,8.30
2017-11-08T10:51:59.379Z,8.30
2017-11-08T10:54:31.084Z,8.40
2017-11-08T10:56:58.924Z,8.40
2017-11-08T10:59:27.786Z,8.40
2017-11-08T11:02:00.278Z,8.40
2017-11-08T11:04:29.023Z,8.30
2017-11-08T11:06:57.046Z,8.20
2017-11-08T11:09:24.700Z,8.20
2017-11-08T11:11:52.415Z,8.30
2017-11-08T11:14:19.986Z,8.30
2017-11-08T11:16:47.805Z,8.20
2017-11-08T11:19:21.300Z,8.20
2017-11-08T11:21:49.696Z,8.40
2017-11-08T11:24:19.372Z,8.20
2017-11-08T11:26:48.701Z,8.30
2017-11-08T11:29:17.080Z,8.30
2017-11-08T11:31:45.406Z,8.20
2017-11-08T11:34:12.986Z,8.20
2017-11-08T11:36:41.394Z,8.20
2017-11-08T11:39:13.011Z,8.10
2017-11-08T11:41:40.619Z,8.30
2017-11-08T11:44:09.022Z,8.20
2017-11-08T11:46:38.399Z,8.20
2017-11-08T11:49:10.996Z,8.20
2017-11-08T11:51:38.634Z,8.20
2017-11-08T11:54:07.024Z,8.20
2017-11-08T11:56:35.363Z,8.20
2017-11-08T11:59:02.936Z,8.20
2017-11-08T12:01:30.538Z,8.20
2017-11-08T12:03:58.862Z,8.00
2017-11-08T12:06:27.558Z,8.00
2017-11-08T12:08:55.139Z,8.00
2017-11-08T12:11:23.551Z,8.20
2017-11-08T12:13:51.896Z,8.30
2017-11-08T12:16:19.584Z,8.20
2017-11-08T12:18:47.952Z,8.20
2017-11-08T12:21:16.296Z,8.20
2017-11-08T12:23:43.947Z,8.10
2017-11-08T12:26:11.509Z,8.10
2017-11-08T12:28:44.927Z,8.10
2017-11-08T12:31:12.530Z,8.00
2017-11-08T12:33:41.030Z,8.00
2017-11-08T12:36:08.863Z,8.20
2017-11-08T12:38:38.065Z,8.20
2017-11-08T12:41:05.667Z,8.20
2017-11-08T12:43:33.281Z,8.10
2017-11-08T12:46:00.944Z,8.00
2017-11-08T12:48:30.110Z,8.00
2017-11-08T12:50:57.713Z,8.00
2017-11-08T12:53:26.125Z,8.10
2017-11-08T12:55:54.759Z,8.20
2017-11-08T12:58:22.417Z,8.20
2017-11-08T13:00:50.030Z,8.20
2017-11-08T13:03:17.628Z,8.20
2017-11-08T13:06:04.883Z,8.20
2017-11-08T13:08:33.294Z,8.10
2017-11-08T13:11:05.713Z,8.10
2017-11-08T13:13:33.354Z,8.00
2017-11-08T13:16:00.989Z,8.10
2017-11-08T13:18:28.643Z,8.10
2017-11-08T13:20:56.282Z,8.10
2017-11-08T13:23:23.851Z,8.20
2017-11-08T13:25:52.230Z,8.10
2017-11-08T13:28:20.592Z,8.10
2017-11-08T13:30:48.300Z,8.10
2017-11-08T13:33:15.903Z,8.10
2017-11-08T13:35:43.498Z,8.20
2017-11-08T13:38:11.825Z,8.20
2017-11-08T13:40:39.437Z,8.10
2017-11-08T13:43:07.783Z,8.10
2017-11-08T13:45:35.398Z,8.10
2017-11-08T13:48:02.994Z,8.10
2017-11-08T13:50:30.599Z,8.10
2017-11-08T13:52:58.970Z,8.00
2017-11-08T13:55:26.530Z,8.00
2017-11-08T13:57:55.585Z,7.90
2017-11-08T14:00:23.327Z,8.00
2017-11-08T14:02:50.968Z,8.00
2017-11-08T14:05:19.343Z,8.20
2017-11-08T14:07:46.913Z,8.10
2017-11-08T14:10:14.538Z,8.20
2017-11-08T14:12:42.236Z,8.20
2017-11-08T14:15:10.657Z,8.10
2017-11-08T14:17:38.268Z,8.10
2017-11-08T14:20:06.676Z,8.20
2017-11-08T14:22:34.263Z,8.10
2017-11-08T14:25:01.824Z,8.20
2017-11-08T14:27:30.447Z,8.10
2017-11-08T14:30:16.852Z,8.10
2017-11-08T14:32:48.066Z,8.00
2017-11-08T14:35:17.998Z,8.10
2017-11-08T14:37:47.046Z,8.10
2017-11-08T14:40:17.027Z,8.10
2017-11-08T14:42:47.238Z,8.10
2017-11-08T14:45:15.443Z,8.20
2017-11-08T14:47:43.276Z,8.20
2017-11-08T14:50:11.121Z,8.20
2017-11-08T14:52:38.700Z,8.10
2017-11-08T14:55:07.052Z,8.20
2017-11-08T14:57:34.649Z,8.20
2017-11-08T15:00:02.231Z,8.20
2017-11-08T15:02:30.611Z,8.20
2017-11-08T15:04:58.995Z,8.20
2017-11-08T15:07:26.627Z,8.20
2017-11-08T15:12:55.635Z,8.10
2017-11-08T15:15:23.247Z,8.10
2017-11-08T15:17:50.973Z,8.20
2017-11-08T15:20:24.479Z,8.10
2017-11-08T15:22:52.076Z,8.20
2017-11-08T15:25:19.706Z,8.20
2017-11-08T15:27:47.375Z,8.20
2017-11-08T15:30:21.552Z,8.10
2017-11-08T15:32:49.164Z,8.10
2017-11-08T15:35:17.524Z,8.10
2017-11-08T15:37:45.191Z,8.10
2017-11-08T15:40:16.758Z,8.20
2017-11-08T15:42:45.153Z,8.20
2017-11-08T15:45:12.723Z,8.20
2017-11-08T15:47:40.347Z,8.20
2017-11-08T15:50:07.978Z,8.10
2017-11-08T15:52:35.574Z,8.10
2017-11-08T15:55:10.498Z,8.10
2017-11-08T15:57:38.073Z,8.10
2017-11-08T16:00:07.089Z,8.20
2017-11-08T16:02:34.986Z,8.20
2017-11-08T16:05:02.559Z,8.20
2017-11-08T16:07:30.168Z,8.10
2017-11-08T16:09:57.738Z,8.10
2017-11-08T16:12:25.394Z,8.20
2017-11-08T16:14:53.021Z,8.10
2017-11-08T16:17:20.585Z,8.10
2017-11-08T16:19:48.138Z,8.10
2017-11-08T16:22:15.760Z,8.00
2017-11-08T16:24:43.331Z,8.20
2017-11-08T16:27:10.899Z,8.20
2017-11-08T16:29:38.590Z,8.10
2017-11-08T16:32:06.167Z,8.10
2017-11-08T16:34:34.524Z,8.00
2017-11-08T16:37:02.102Z,7.90
2017-11-08T16:39:30.493Z,8.00
2017-11-08T16:41:58.810Z,8.00
2017-11-08T16:44:26.422Z,8.00
2017-11-08T16:46:54.750Z,8.10
2017-11-08T16:49:22.336Z,8.00
2017-11-08T16:51:49.946Z,8.00
2017-11-08T16:54:17.506Z,8.00
2017-11-08T16:56:45.095Z,8.00
2017-11-08T16:59:12.763Z,8.00
2017-11-08T17:01:41.134Z,8.00
2017-11-08T17:04:08.719Z,8.00
2017-11-08T17:06:36.278Z,8.00
2017-11-08T17:09:05.888Z,8.00
2017-11-08T17:11:35.836Z,8.00
2017-11-08T17:14:06.236Z,8.00
2017-11-08T17:16:36.137Z,8.00
2017-11-08T17:19:08.348Z,8.00
2017-11-08T17:21:38.896Z,8.10
2017-11-08T17:24:08.476Z,8.10
2017-11-08T17:26:39.350Z,8.00
2017-11-08T17:29:08.971Z,7.90
2017-11-08T17:31:40.407Z,8.00
2017-11-08T17:34:11.289Z,8.00
2017-11-08T17:36:40.851Z,8.10
2017-11-08T17:39:11.675Z,8.10
2017-11-08T17:41:43.113Z,8.10
2017-11-08T17:44:15.581Z,8.10
2017-11-08T17:46:45.417Z,8.10
2017-11-08T17:49:15.931Z,8.00
2017-11-08T17:51:46.471Z,8.00
2017-11-08T17:54:17.296Z,7.90
2017-11-08T17:56:48.984Z,8.00
2017-11-08T17:59:20.750Z,8.00
2017-11-08T18:01:51.390Z,8.10
2017-11-08T18:04:21.299Z,8.00
2017-11-08T18:06:50.916Z,8.10
2017-11-08T18:09:20.656Z,8.00
2017-11-08T18:11:50.429Z,8.10
2017-11-08T18:14:21.549Z,8.00
2017-11-08T18:16:52.024Z,8.10
2017-11-08T18:19:22.112Z,8.00
2017-11-08T18:21:52.506Z,8.10
2017-11-08T18:24:23.249Z,8.20
2017-11-08T18:26:53.620Z,8.10
2017-11-08T18:29:23.512Z,8.10
2017-11-08T18:31:54.154Z,8.00
2017-11-08T18:34:24.726Z,8.10
2017-11-08T18:36:54.797Z,8.00
2017-11-08T18:39:24.888Z,7.90
2017-11-08T18:41:57.396Z,7.90
2017-11-08T18:44:27.146Z,7.90
2017-11-08T18:46:56.929Z,8.00
2017-11-08T18:49:26.540Z,8.00
2017-11-08T18:51:55.680Z,7.90
2017-11-08T18:54:25.369Z,7.90
2017-11-08T18:56:56.116Z,7.90
2017-11-08T18:59:26.659Z,8.00
2017-11-08T19:01:56.986Z,8.00
2017-11-08T19:04:27.364Z,7.90
2017-11-08T19:06:56.645Z,7.90
2017-11-08T19:09:27.211Z,7.90
2017-11-08T19:11:57.325Z,7.90
2017-11-08T19:14:28.138Z,7.90
2017-11-08T19:16:57.910Z,7.90
2017-11-08T19:19:27.695Z,7.80
2017-11-08T19:22:00.338Z,7.80
2017-11-08T19:24:30.346Z,7.90
2017-11-08T19:27:01.287Z,7.80
2017-11-08T19:29:32.455Z,7.80
2017-11-08T19:32:02.354Z,7.80
2017-11-08T19:34:35.305Z,7.80
2017-11-08T19:37:05.367Z,7.90
2017-11-08T19:39:35.280Z,7.90
2017-11-08T19:42:05.661Z,8.00
2017-11-08T19:44:37.832Z,7.90
2017-11-08T19:47:06.947Z,7.90
2017-11-08T19:49:38.243Z,7.90
2017-11-08T19:52:07.968Z,7.90
2017-11-08T19:54:41.618Z,7.90
2017-11-08T19:57:11.249Z,7.90
2017-11-08T19:59:41.152Z,7.90
2017-11-08T20:02:10.615Z,7.90
2017-11-08T20:04:38.209Z,7.90
2017-11-08T20:07:05.797Z,7.90
2017-11-08T20:09:34.261Z,7.80
2017-11-08T20:12:01.843Z,7.90
2017-11-08T20:14:29.469Z,7.90
2017-11-08T20:16:57.037Z,7.90
2017-11-08T20:19:24.642Z,8.00
2017-11-08T20:21:52.261Z,8.00
2017-11-08T20:24:19.823Z,7.90
2017-11-08T20:26:47.402Z,7.90
2017-11-08T20:29:15.007Z,7.80
2017-11-08T20:31:42.604Z,7.90
2017-11-08T20:34:10.163Z,7.90
2017-11-08T20:36:37.757Z,7.90
2017-11-08T20:39:05.356Z,7.90
2017-11-08T20:41:32.916Z,7.80
2017-11-08T20:44:00.558Z,7.90
2017-11-08T20:46:28.147Z,7.80
2017-11-08T20:48:56.519Z,7.90
2017-11-08T20:51:24.146Z,7.90
2017-11-08T20:53:51.749Z,7.80
2017-11-08T20:56:20.104Z,7.80
2017-11-08T20:58:47.671Z,7.80
2017-11-08T21:01:15.405Z,7.90
2017-11-08T21:03:46.449Z,7.80
2017-11-08T21:06:15.617Z,7.90
2017-11-08T21:08:43.302Z,8.00
2017-11-08T21:11:10.920Z,7.80
2017-11-08T21:13:39.303Z,7.70
2017-11-08T21:16:07.771Z,7.70
2017-11-08T21:18:35.414Z,7.70
2017-11-08T21:21:03.026Z,7.80
2017-11-08T21:23:30.664Z,7.80
2017-11-08T21:25:59.082Z,7.80
2017-11-08T21:28:26.651Z,7.80
2017-11-08T21:30:54.299Z,7.80
2017-11-08T21:33:21.913Z,7.80
2017-11-08T21:35:49.474Z,7.80
2017-11-08T21:38:17.091Z,7.90
2017-11-08T21:40:44.782Z,7.90
2017-11-08T21:43:13.641Z,7.80
2017-11-08T21:45:41.275Z,7.90
2017-11-08T21:48:09.671Z,7.90
2017-11-08T21:50:37.364Z,7.90
2017-11-08T21:53:05.262Z,7.80
2017-11-08T21:55:32.875Z,7.70
2017-11-08T21:58:00.589Z,7.80
2017-11-08T22:00:29.127Z,7.80
2017-11-08T22:02:56.812Z,7.80
2017-11-08T22:05:24.568Z,7.80
2017-11-08T22:07:52.282Z,10.50
2017-11-08T22:10:20.705Z,7.80
2017-11-08T22:12:48.461Z,7.80
2017-11-08T22:15:16.080Z,7.70
2017-11-08T22:17:44.435Z,7.70
2017-11-08T22:20:12.060Z,7.70
2017-11-08T22:22:39.676Z,7.90
2017-11-08T22:25:08.056Z,7.90
2017-11-08T22:27:36.560Z,7.90
2017-11-08T22:30:04.977Z,7.90
2017-11-08T22:32:32.624Z,7.90
2017-11-08T22:35:00.235Z,7.80
2017-11-08T22:37:27.966Z,7.80
2017-11-08T22:39:55.715Z,7.70
2017-11-08T22:42:23.274Z,7.90
2017-11-08T22:44:50.871Z,8.00
2017-11-08T22:47:18.446Z,7.90
2017-11-08T22:49:46.044Z,7.90
2017-11-08T22:52:13.660Z,7.90
2017-11-08T22:54:41.238Z,7.90
2017-11-08T22:57:09.542Z,7.80
2017-11-08T22:59:37.148Z,7.80
2017-11-08T23:02:04.731Z,7.80
2017-11-08T23:04:32.284Z,7.90
2017-11-08T23:06:59.891Z,7.90
2017-11-08T23:09:27.483Z,7.90
2017-11-08T23:11:55.104Z,7.90
2017-11-08T23:14:23.431Z,7.80
2017-11-08T23:16:51.034Z,7.80
2017-11-08T23:19:19.373Z,7.90
2017-11-08T23:21:46.947Z,7.90
2017-11-08T23:24:14.543Z,7.90
2017-11-08T23:26:42.912Z,7.80
2017-11-08T23:29:11.242Z,7.80
2017-11-08T23:31:38.818Z,7.80
2017-11-08T23:34:06.412Z,7.80
2017-11-08T23:36:34.731Z,7.80
2017-11-08T23:39:02.327Z,7.80
2017-11-08T23:41:29.931Z,7.80
2017-11-08T23:43:57.489Z,7.70
2017-11-08T23:46:25.107Z,7.80
2017-11-08T23:48:52.677Z,7.90
2017-11-08T23:51:21.055Z,7.90
2017-11-08T23:53:48.610Z,7.80
2017-11-08T23:56:17.147Z,7.70
2017-11-08T23:58:44.718Z,7.70
